sensor_id;sensor_type;location;lat;lon;timestamp;P1;durP1;ratioP1;P2;durP2;ratioP2
15982;SDS011;14442;50.196;8.096;2023-02-15T00:01:25;3.10;;;2.80;;
15982;SDS011;14442;50.196;8.096;2023-02-15T00:03:52;3.30;;;3.10;;
15982;SDS011;14442;50.196;8.096;2023-02-15T00:06:18;3.10;;;2.90;;
15982;SDS011;14442;50.196;8.096;2023-02-15T00:08:47;2.90;;;2.80;;
15982;SDS011;14442;50.196;8.096;2023-02-15T00:11:14;3.00;;;2.90;;
15982;SDS011;14442;50.196;8.096;2023-02-15T00:14:03;3.20;;;2.90;;
15982;SDS011;14442;50.196;8.096;2023-02-15T00:16:30;3.67;;;3.43;;
15982;SDS011;14442;50.196;8.096;2023-02-15T00:18:57;3.13;;;2.93;;
15982;SDS011;14442;50.196;8.096;2023-02-15T00:21:26;3.30;;;3.00;;
15982;SDS011;14442;50.196;8.096;2023-02-15T00:23:55;3.17;;;2.97;;
15982;SDS011;14442;50.196;8.096;2023-02-15T00:26:22;3.67;;;3.37;;
15982;SDS011;14442;50.196;8.096;2023-02-15T00:28:48;3.83;;;3.17;;
15982;SDS011;14442;50.196;8.096;2023-02-15T00:31:15;4.03;;;3.73;;
15982;SDS011;14442;50.196;8.096;2023-02-15T00:33:42;3.43;;;3.10;;
15982;SDS011;14442;50.196;8.096;2023-02-15T00:36:09;3.87;;;3.43;;
15982;SDS011;14442;50.196;8.096;2023-02-15T00:38:37;3.97;;;3.27;;
15982;SDS011;14442;50.196;8.096;2023-02-15T00:41:06;5.57;;;3.43;;
15982;SDS011;14442;50.196;8.096;2023-02-15T00:43:33;7.07;;;3.87;;
15982;SDS011;14442;50.196;8.096;2023-02-15T00:46:01;3.63;;;3.33;;
15982;SDS011;14442;50.196;8.096;2023-02-15T00:48:29;3.47;;;3.17;;
15982;SDS011;14442;50.196;8.096;2023-02-15T00:50:56;3.50;;;3.20;;
15982;SDS011;14442;50.196;8.096;2023-02-15T00:53:25;3.63;;;3.33;;
15982;SDS011;14442;50.196;8.096;2023-02-15T00:55:52;3.07;;;2.87;;
15982;SDS011;14442;50.196;8.096;2023-02-15T00:58:20;3.27;;;3.07;;
15982;SDS011;14442;50.196;8.096;2023-02-15T01:00:47;3.23;;;2.87;;
15982;SDS011;14442;50.196;8.096;2023-02-15T01:03:15;3.27;;;3.03;;
15982;SDS011;14442;50.196;8.096;2023-02-15T01:05:43;3.50;;;3.20;;
15982;SDS011;14442;50.196;8.096;2023-02-15T01:08:10;3.30;;;3.00;;
15982;SDS011;14442;50.196;8.096;2023-02-15T01:10:36;3.00;;;2.80;;
15982;SDS011;14442;50.196;8.096;2023-02-15T01:13:04;3.63;;;3.33;;
15982;SDS011;14442;50.196;8.096;2023-02-15T01:15:33;3.80;;;3.50;;
15982;SDS011;14442;50.196;8.096;2023-02-15T01:18:00;3.70;;;3.40;;
15982;SDS011;14442;50.196;8.096;2023-02-15T01:20:27;4.40;;;3.20;;
15982;SDS011;14442;50.196;8.096;2023-02-15T01:22:55;3.70;;;3.07;;
15982;SDS011;14442;50.196;8.096;2023-02-15T01:25:23;4.23;;;3.00;;
15982;SDS011;14442;50.196;8.096;2023-02-15T01:27:50;5.97;;;3.13;;
15982;SDS011;14442;50.196;8.096;2023-02-15T01:30:17;3.47;;;2.83;;
15982;SDS011;14442;50.196;8.096;2023-02-15T01:32:45;3.20;;;3.00;;
15982;SDS011;14442;50.196;8.096;2023-02-15T01:35:12;2.73;;;2.53;;
15982;SDS011;14442;50.196;8.096;2023-02-15T01:37:38;2.93;;;2.63;;
15982;SDS011;14442;50.196;8.096;2023-02-15T01:40:06;2.57;;;2.30;;
15982;SDS011;14442;50.196;8.096;2023-02-15T01:42:37;2.70;;;2.50;;
15982;SDS011;14442;50.196;8.096;2023-02-15T01:45:04;2.47;;;2.37;;
15982;SDS011;14442;50.196;8.096;2023-02-15T01:47:41;5.23;;;2.67;;
15982;SDS011;14442;50.196;8.096;2023-02-15T01:50:12;2.17;;;2.07;;
15982;SDS011;14442;50.196;8.096;2023-02-15T01:52:43;2.37;;;2.27;;
15982;SDS011;14442;50.196;8.096;2023-02-15T01:55:15;2.20;;;2.00;;
15982;SDS011;14442;50.196;8.096;2023-02-15T01:57:42;1.90;;;1.80;;
15982;SDS011;14442;50.196;8.096;2023-02-15T02:00:11;2.40;;;2.20;;
15982;SDS011;14442;50.196;8.096;2023-02-15T02:02:41;2.07;;;1.90;;
15982;SDS011;14442;50.196;8.096;2023-02-15T02:05:09;2.17;;;2.07;;
15982;SDS011;14442;50.196;8.096;2023-02-15T02:07:38;1.90;;;1.80;;
15982;SDS011;14442;50.196;8.096;2023-02-15T02:10:08;1.93;;;1.83;;
15982;SDS011;14442;50.196;8.096;2023-02-15T02:12:36;2.00;;;1.80;;
15982;SDS011;14442;50.196;8.096;2023-02-15T02:15:04;1.67;;;1.57;;
15982;SDS011;14442;50.196;8.096;2023-02-15T02:17:34;2.10;;;2.00;;
15982;SDS011;14442;50.196;8.096;2023-02-15T02:20:17;1.57;;;1.47;;
15982;SDS011;14442;50.196;8.096;2023-02-15T02:29:21;2.03;;;1.50;;
15982;SDS011;14442;50.196;8.096;2023-02-15T02:32:18;1.30;;;1.30;;
15982;SDS011;14442;50.196;8.096;2023-02-15T02:35:02;1.70;;;1.60;;
15982;SDS011;14442;50.196;8.096;2023-02-15T02:37:37;1.50;;;1.43;;
15982;SDS011;14442;50.196;8.096;2023-02-15T02:40:15;2.17;;;1.70;;
15982;SDS011;14442;50.196;8.096;2023-02-15T02:42:47;1.40;;;1.30;;
15982;SDS011;14442;50.196;8.096;2023-02-15T02:45:22;1.50;;;1.40;;
15982;SDS011;14442;50.196;8.096;2023-02-15T02:47:55;1.50;;;1.40;;
15982;SDS011;14442;50.196;8.096;2023-02-15T02:50:27;1.30;;;1.30;;
15982;SDS011;14442;50.196;8.096;2023-02-15T02:52:56;1.30;;;1.30;;
15982;SDS011;14442;50.196;8.096;2023-02-15T02:55:24;1.40;;;1.33;;
15982;SDS011;14442;50.196;8.096;2023-02-15T02:57:57;1.30;;;1.30;;
15982;SDS011;14442;50.196;8.096;2023-02-15T03:00:29;1.47;;;1.37;;
15982;SDS011;14442;50.196;8.096;2023-02-15T03:02:59;1.40;;;1.40;;
15982;SDS011;14442;50.196;8.096;2023-02-15T03:05:31;1.30;;;1.30;;
15982;SDS011;14442;50.196;8.096;2023-02-15T03:08:00;1.10;;;1.10;;
15982;SDS011;14442;50.196;8.096;2023-02-15T03:10:31;1.00;;;1.00;;
15982;SDS011;14442;50.196;8.096;2023-02-15T03:13:00;1.10;;;1.10;;
15982;SDS011;14442;50.196;8.096;2023-02-15T03:15:29;1.10;;;1.10;;
15982;SDS011;14442;50.196;8.096;2023-02-15T03:18:12;1.20;;;1.20;;
15982;SDS011;14442;50.196;8.096;2023-02-15T03:20:41;1.10;;;1.10;;
15982;SDS011;14442;50.196;8.096;2023-02-15T03:23:10;1.20;;;1.20;;
15982;SDS011;14442;50.196;8.096;2023-02-15T03:25:40;1.17;;;1.17;;
15982;SDS011;14442;50.196;8.096;2023-02-15T03:28:10;1.10;;;1.10;;
15982;SDS011;14442;50.196;8.096;2023-02-15T03:30:40;0.83;;;0.83;;
15982;SDS011;14442;50.196;8.096;2023-02-15T03:33:09;0.93;;;0.93;;
15982;SDS011;14442;50.196;8.096;2023-02-15T03:35:42;1.17;;;1.17;;
15982;SDS011;14442;50.196;8.096;2023-02-15T03:38:12;0.80;;;0.80;;
15982;SDS011;14442;50.196;8.096;2023-02-15T03:40:45;1.20;;;1.20;;
15982;SDS011;14442;50.196;8.096;2023-02-15T03:43:32;1.00;;;1.00;;
15982;SDS011;14442;50.196;8.096;2023-02-15T03:46:08;0.80;;;0.80;;
15982;SDS011;14442;50.196;8.096;2023-02-15T03:48:40;0.90;;;0.90;;
15982;SDS011;14442;50.196;8.096;2023-02-15T03:51:12;1.03;;;1.03;;
15982;SDS011;14442;50.196;8.096;2023-02-15T03:54:03;1.03;;;1.03;;
15982;SDS011;14442;50.196;8.096;2023-02-15T03:56:33;0.90;;;0.90;;
15982;SDS011;14442;50.196;8.096;2023-02-15T03:59:03;0.80;;;0.80;;
15982;SDS011;14442;50.196;8.096;2023-02-15T04:01:51;0.80;;;0.80;;
15982;SDS011;14442;50.196;8.096;2023-02-15T04:04:28;0.90;;;0.90;;
15982;SDS011;14442;50.196;8.096;2023-02-15T04:07:00;0.90;;;0.90;;
15982;SDS011;14442;50.196;8.096;2023-02-15T04:09:27;0.83;;;0.83;;
15982;SDS011;14442;50.196;8.096;2023-02-15T04:12:12;1.00;;;1.00;;
15982;SDS011;14442;50.196;8.096;2023-02-15T04:14:38;0.70;;;0.70;;
15982;SDS011;14442;50.196;8.096;2023-02-15T04:17:23;1.00;;;1.00;;
15982;SDS011;14442;50.196;8.096;2023-02-15T04:19:50;1.00;;;1.00;;
15982;SDS011;14442;50.196;8.096;2023-02-15T04:22:35;0.90;;;0.90;;
15982;SDS011;14442;50.196;8.096;2023-02-15T04:25:20;1.10;;;1.10;;
15982;SDS011;14442;50.196;8.096;2023-02-15T04:27:47;1.10;;;1.10;;
15982;SDS011;14442;50.196;8.096;2023-02-15T04:30:16;0.90;;;0.90;;
15982;SDS011;14442;50.196;8.096;2023-02-15T04:32:44;0.90;;;0.90;;
15982;SDS011;14442;50.196;8.096;2023-02-15T04:35:11;0.83;;;0.83;;
15982;SDS011;14442;50.196;8.096;2023-02-15T04:37:40;0.70;;;0.70;;
15982;SDS011;14442;50.196;8.096;2023-02-15T04:40:08;0.90;;;0.90;;
15982;SDS011;14442;50.196;8.096;2023-02-15T04:42:37;0.70;;;0.70;;
15982;SDS011;14442;50.196;8.096;2023-02-15T04:45:04;1.00;;;1.00;;
15982;SDS011;14442;50.196;8.096;2023-02-15T04:47:31;0.70;;;0.70;;
15982;SDS011;14442;50.196;8.096;2023-02-15T04:49:58;0.90;;;0.90;;
15982;SDS011;14442;50.196;8.096;2023-02-15T04:52:25;0.70;;;0.70;;
15982;SDS011;14442;50.196;8.096;2023-02-15T04:54:53;0.80;;;0.80;;
15982;SDS011;14442;50.196;8.096;2023-02-15T04:57:19;0.80;;;0.80;;
15982;SDS011;14442;50.196;8.096;2023-02-15T04:59:46;0.80;;;0.80;;
15982;SDS011;14442;50.196;8.096;2023-02-15T05:02:13;0.80;;;0.80;;
15982;SDS011;14442;50.196;8.096;2023-02-15T05:04:39;0.90;;;0.90;;
15982;SDS011;14442;50.196;8.096;2023-02-15T05:07:06;0.90;;;0.87;;
15982;SDS011;14442;50.196;8.096;2023-02-15T05:09:33;0.90;;;0.90;;
15982;SDS011;14442;50.196;8.096;2023-02-15T05:12:01;0.90;;;0.90;;
15982;SDS011;14442;50.196;8.096;2023-02-15T05:14:27;0.80;;;0.80;;
15982;SDS011;14442;50.196;8.096;2023-02-15T05:16:54;0.93;;;0.93;;
15982;SDS011;14442;50.196;8.096;2023-02-15T05:19:21;0.90;;;0.90;;
15982;SDS011;14442;50.196;8.096;2023-02-15T05:21:49;1.13;;;1.00;;
15982;SDS011;14442;50.196;8.096;2023-02-15T05:24:16;1.00;;;1.00;;
15982;SDS011;14442;50.196;8.096;2023-02-15T05:27:13;0.97;;;0.97;;
15982;SDS011;14442;50.196;8.096;2023-02-15T05:29:57;1.10;;;1.10;;
15982;SDS011;14442;50.196;8.096;2023-02-15T05:32:23;1.20;;;1.20;;
15982;SDS011;14442;50.196;8.096;2023-02-15T05:34:50;0.93;;;0.90;;
15982;SDS011;14442;50.196;8.096;2023-02-15T05:37:17;1.00;;;1.00;;
15982;SDS011;14442;50.196;8.096;2023-02-15T05:39:44;0.97;;;0.97;;
15982;SDS011;14442;50.196;8.096;2023-02-15T05:42:10;0.87;;;0.87;;
15982;SDS011;14442;50.196;8.096;2023-02-15T05:44:38;1.07;;;1.07;;
15982;SDS011;14442;50.196;8.096;2023-02-15T05:47:05;1.10;;;1.10;;
15982;SDS011;14442;50.196;8.096;2023-02-15T05:49:32;1.00;;;1.00;;
15982;SDS011;14442;50.196;8.096;2023-02-15T05:51:59;0.80;;;0.80;;
15982;SDS011;14442;50.196;8.096;2023-02-15T05:54:26;1.17;;;1.17;;
15982;SDS011;14442;50.196;8.096;2023-02-15T05:56:53;1.00;;;1.00;;
15982;SDS011;14442;50.196;8.096;2023-02-15T05:59:21;0.97;;;0.97;;
15982;SDS011;14442;50.196;8.096;2023-02-15T06:01:48;1.20;;;1.17;;
15982;SDS011;14442;50.196;8.096;2023-02-15T06:04:15;0.80;;;0.80;;
15982;SDS011;14442;50.196;8.096;2023-02-15T06:06:41;2.93;;;1.30;;
15982;SDS011;14442;50.196;8.096;2023-02-15T06:09:09;1.13;;;1.13;;
15982;SDS011;14442;50.196;8.096;2023-02-15T06:11:36;1.10;;;1.10;;
15982;SDS011;14442;50.196;8.096;2023-02-15T06:14:03;1.20;;;1.20;;
15982;SDS011;14442;50.196;8.096;2023-02-15T06:16:31;1.03;;;1.03;;
15982;SDS011;14442;50.196;8.096;2023-02-15T06:18:58;1.10;;;1.10;;
15982;SDS011;14442;50.196;8.096;2023-02-15T06:21:26;0.97;;;0.97;;
15982;SDS011;14442;50.196;8.096;2023-02-15T06:23:53;1.00;;;1.00;;
15982;SDS011;14442;50.196;8.096;2023-02-15T06:26:19;1.30;;;1.30;;
15982;SDS011;14442;50.196;8.096;2023-02-15T06:28:46;1.17;;;1.17;;
15982;SDS011;14442;50.196;8.096;2023-02-15T06:31:13;1.00;;;1.00;;
15982;SDS011;14442;50.196;8.096;2023-02-15T06:33:41;1.07;;;1.07;;
15982;SDS011;14442;50.196;8.096;2023-02-15T06:36:08;1.20;;;1.20;;
15982;SDS011;14442;50.196;8.096;2023-02-15T06:38:34;0.90;;;0.90;;
15982;SDS011;14442;50.196;8.096;2023-02-15T06:41:01;1.13;;;1.13;;
15982;SDS011;14442;50.196;8.096;2023-02-15T06:43:28;1.00;;;1.00;;
15982;SDS011;14442;50.196;8.096;2023-02-15T06:45:54;1.00;;;1.00;;
15982;SDS011;14442;50.196;8.096;2023-02-15T06:48:21;0.93;;;0.93;;
15982;SDS011;14442;50.196;8.096;2023-02-15T06:50:49;1.10;;;1.10;;
15982;SDS011;14442;50.196;8.096;2023-02-15T06:53:16;1.10;;;1.10;;
15982;SDS011;14442;50.196;8.096;2023-02-15T06:55:42;1.23;;;1.23;;
15982;SDS011;14442;50.196;8.096;2023-02-15T06:58:09;0.70;;;0.70;;
15982;SDS011;14442;50.196;8.096;2023-02-15T07:00:36;1.00;;;1.00;;
15982;SDS011;14442;50.196;8.096;2023-02-15T07:03:02;1.30;;;1.30;;
15982;SDS011;14442;50.196;8.096;2023-02-15T07:05:32;0.90;;;0.90;;
15982;SDS011;14442;50.196;8.096;2023-02-15T07:08:01;1.03;;;1.03;;
15982;SDS011;14442;50.196;8.096;2023-02-15T07:10:28;1.00;;;1.00;;
15982;SDS011;14442;50.196;8.096;2023-02-15T07:12:55;0.90;;;0.90;;
15982;SDS011;14442;50.196;8.096;2023-02-15T07:15:21;1.00;;;1.00;;
15982;SDS011;14442;50.196;8.096;2023-02-15T07:17:48;0.93;;;0.93;;
15982;SDS011;14442;50.196;8.096;2023-02-15T07:20:16;1.00;;;1.00;;
15982;SDS011;14442;50.196;8.096;2023-02-15T07:22:44;1.30;;;1.20;;
15982;SDS011;14442;50.196;8.096;2023-02-15T07:25:12;1.23;;;1.20;;
15982;SDS011;14442;50.196;8.096;2023-02-15T07:27:39;1.10;;;1.00;;
15982;SDS011;14442;50.196;8.096;2023-02-15T07:30:07;1.10;;;1.10;;
15982;SDS011;14442;50.196;8.096;2023-02-15T07:32:35;1.00;;;1.00;;
15982;SDS011;14442;50.196;8.096;2023-02-15T07:35:22;1.43;;;1.43;;
15982;SDS011;14442;50.196;8.096;2023-02-15T07:37:48;1.20;;;1.20;;
15982;SDS011;14442;50.196;8.096;2023-02-15T07:40:17;1.60;;;1.13;;
15982;SDS011;14442;50.196;8.096;2023-02-15T07:42:43;1.50;;;1.40;;
15982;SDS011;14442;50.196;8.096;2023-02-15T07:45:10;1.50;;;1.33;;
15982;SDS011;14442;50.196;8.096;2023-02-15T07:47:37;1.30;;;1.30;;
15982;SDS011;14442;50.196;8.096;2023-02-15T07:50:04;2.97;;;1.60;;
15982;SDS011;14442;50.196;8.096;2023-02-15T07:52:32;1.67;;;1.57;;
15982;SDS011;14442;50.196;8.096;2023-02-15T07:54:58;6.27;;;1.77;;
15982;SDS011;14442;50.196;8.096;2023-02-15T07:57:26;3.50;;;1.77;;
15982;SDS011;14442;50.196;8.096;2023-02-15T07:59:54;3.23;;;1.67;;
15982;SDS011;14442;50.196;8.096;2023-02-15T08:02:21;1.60;;;1.50;;
15982;SDS011;14442;50.196;8.096;2023-02-15T08:04:47;1.50;;;1.40;;
15982;SDS011;14442;50.196;8.096;2023-02-15T08:07:14;2.33;;;1.67;;
15982;SDS011;14442;50.196;8.096;2023-02-15T08:09:41;3.70;;;1.40;;
15982;SDS011;14442;50.196;8.096;2023-02-15T08:12:08;1.27;;;1.27;;
15982;SDS011;14442;50.196;8.096;2023-02-15T08:14:36;3.73;;;2.10;;
15982;SDS011;14442;50.196;8.096;2023-02-15T08:17:02;2.30;;;2.07;;
15982;SDS011;14442;50.196;8.096;2023-02-15T08:19:30;3.33;;;1.97;;
15982;SDS011;14442;50.196;8.096;2023-02-15T08:21:59;4.53;;;2.40;;
15982;SDS011;14442;50.196;8.096;2023-02-15T08:24:28;4.83;;;1.80;;
15982;SDS011;14442;50.196;8.096;2023-02-15T08:26:56;4.60;;;2.00;;
15982;SDS011;14442;50.196;8.096;2023-02-15T08:29:24;4.57;;;1.83;;
15982;SDS011;14442;50.196;8.096;2023-02-15T08:31:54;2.90;;;1.70;;
15982;SDS011;14442;50.196;8.096;2023-02-15T08:34:23;3.63;;;1.93;;
15982;SDS011;14442;50.196;8.096;2023-02-15T08:36:50;4.60;;;1.73;;
15982;SDS011;14442;50.196;8.096;2023-02-15T08:39:17;4.67;;;2.27;;
15982;SDS011;14442;50.196;8.096;2023-02-15T08:41:44;6.37;;;2.40;;
15982;SDS011;14442;50.196;8.096;2023-02-15T08:44:12;4.53;;;1.67;;
15982;SDS011;14442;50.196;8.096;2023-02-15T08:46:40;3.10;;;1.80;;
15982;SDS011;14442;50.196;8.096;2023-02-15T08:49:09;2.50;;;1.50;;
15982;SDS011;14442;50.196;8.096;2023-02-15T08:51:39;3.97;;;1.73;;
15982;SDS011;14442;50.196;8.096;2023-02-15T08:54:06;1.97;;;1.50;;
15982;SDS011;14442;50.196;8.096;2023-02-15T08:56:36;4.70;;;1.70;;
15982;SDS011;14442;50.196;8.096;2023-02-15T08:59:04;6.77;;;1.87;;
15982;SDS011;14442;50.196;8.096;2023-02-15T09:01:33;5.43;;;1.70;;
15982;SDS011;14442;50.196;8.096;2023-02-15T09:04:01;1.47;;;1.33;;
15982;SDS011;14442;50.196;8.096;2023-02-15T09:06:31;3.93;;;1.33;;
15982;SDS011;14442;50.196;8.096;2023-02-15T09:08:58;3.73;;;1.10;;
15982;SDS011;14442;50.196;8.096;2023-02-15T09:11:26;1.80;;;1.20;;
15982;SDS011;14442;50.196;8.096;2023-02-15T09:13:54;1.90;;;1.30;;
15982;SDS011;14442;50.196;8.096;2023-02-15T09:16:23;1.77;;;1.30;;
15982;SDS011;14442;50.196;8.096;2023-02-15T09:18:51;3.50;;;1.67;;
15982;SDS011;14442;50.196;8.096;2023-02-15T09:21:18;1.07;;;1.07;;
15982;SDS011;14442;50.196;8.096;2023-02-15T09:23:49;1.90;;;1.20;;
15982;SDS011;14442;50.196;8.096;2023-02-15T09:26:18;1.40;;;1.30;;
15982;SDS011;14442;50.196;8.096;2023-02-15T09:28:46;0.87;;;0.80;;
15982;SDS011;14442;50.196;8.096;2023-02-15T09:31:14;6.83;;;1.83;;
15982;SDS011;14442;50.196;8.096;2023-02-15T09:33:43;5.20;;;1.47;;
15982;SDS011;14442;50.196;8.096;2023-02-15T09:36:15;3.00;;;1.43;;
15982;SDS011;14442;50.196;8.096;2023-02-15T09:38:43;6.30;;;1.57;;
15982;SDS011;14442;50.196;8.096;2023-02-15T09:41:21;3.53;;;1.37;;
15982;SDS011;14442;50.196;8.096;2023-02-15T09:44:11;2.57;;;1.20;;
15982;SDS011;14442;50.196;8.096;2023-02-15T09:46:51;4.07;;;1.20;;
15982;SDS011;14442;50.196;8.096;2023-02-15T09:49:32;3.50;;;1.37;;
15982;SDS011;14442;50.196;8.096;2023-02-15T09:52:15;4.77;;;1.20;;
15982;SDS011;14442;50.196;8.096;2023-02-15T09:54:55;6.60;;;1.10;;
15982;SDS011;14442;50.196;8.096;2023-02-15T09:57:36;6.00;;;1.37;;
15982;SDS011;14442;50.196;8.096;2023-02-15T10:00:12;7.80;;;1.47;;
15982;SDS011;14442;50.196;8.096;2023-02-15T10:02:52;9.13;;;1.47;;
15982;SDS011;14442;50.196;8.096;2023-02-15T10:05:38;5.33;;;1.57;;
15982;SDS011;14442;50.196;8.096;2023-02-15T10:08:21;3.93;;;1.20;;
15982;SDS011;14442;50.196;8.096;2023-02-15T10:11:03;2.87;;;0.87;;
15982;SDS011;14442;50.196;8.096;2023-02-15T10:14:01;3.77;;;1.03;;
15982;SDS011;14442;50.196;8.096;2023-02-15T10:16:40;4.10;;;0.90;;
15982;SDS011;14442;50.196;8.096;2023-02-15T10:19:17;2.53;;;1.20;;
15982;SDS011;14442;50.196;8.096;2023-02-15T10:21:53;2.03;;;1.10;;
15982;SDS011;14442;50.196;8.096;2023-02-15T10:24:36;7.77;;;0.80;;
15982;SDS011;14442;50.196;8.096;2023-02-15T10:27:12;2.57;;;1.00;;
15982;SDS011;14442;50.196;8.096;2023-02-15T10:29:47;3.60;;;1.00;;
15982;SDS011;14442;50.196;8.096;2023-02-15T10:32:23;2.10;;;0.93;;
15982;SDS011;14442;50.196;8.096;2023-02-15T10:34:51;1.73;;;0.70;;
15982;SDS011;14442;50.196;8.096;2023-02-15T10:40:21;4.97;;;1.00;;
15982;SDS011;14442;50.196;8.096;2023-02-15T10:43:03;2.63;;;0.80;;
15982;SDS011;14442;50.196;8.096;2023-02-15T10:45:43;9.43;;;1.73;;
15982;SDS011;14442;50.196;8.096;2023-02-15T10:48:23;3.10;;;1.10;;
15982;SDS011;14442;50.196;8.096;2023-02-15T10:51:05;4.60;;;1.37;;
15982;SDS011;14442;50.196;8.096;2023-02-15T10:53:45;4.00;;;0.90;;
15982;SDS011;14442;50.196;8.096;2023-02-15T10:56:29;3.40;;;0.90;;
15982;SDS011;14442;50.196;8.096;2023-02-15T10:59:10;2.47;;;0.87;;
15982;SDS011;14442;50.196;8.096;2023-02-15T11:01:51;2.03;;;1.03;;
15982;SDS011;14442;50.196;8.096;2023-02-15T11:04:34;0.77;;;0.50;;
15982;SDS011;14442;50.196;8.096;2023-02-15T11:07:18;2.03;;;0.83;;
15982;SDS011;14442;50.196;8.096;2023-02-15T11:09:49;2.30;;;1.40;;
15982;SDS011;14442;50.196;8.096;2023-02-15T11:12:20;1.70;;;1.00;;
15982;SDS011;14442;50.196;8.096;2023-02-15T11:14:50;2.87;;;1.90;;
15982;SDS011;14442;50.196;8.096;2023-02-15T11:17:24;2.63;;;1.33;;
15982;SDS011;14442;50.196;8.096;2023-02-15T11:19:56;3.93;;;1.50;;
15982;SDS011;14442;50.196;8.096;2023-02-15T11:22:27;7.33;;;1.97;;
15982;SDS011;14442;50.196;8.096;2023-02-15T11:24:56;7.63;;;1.63;;
15982;SDS011;14442;50.196;8.096;2023-02-15T11:27:25;3.07;;;1.20;;
15982;SDS011;14442;50.196;8.096;2023-02-15T11:29:57;5.40;;;1.40;;
15982;SDS011;14442;50.196;8.096;2023-02-15T11:32:29;3.27;;;1.03;;
15982;SDS011;14442;50.196;8.096;2023-02-15T11:34:59;3.63;;;1.17;;
15982;SDS011;14442;50.196;8.096;2023-02-15T11:37:31;2.73;;;1.20;;
15982;SDS011;14442;50.196;8.096;2023-02-15T11:40:02;4.57;;;1.20;;
15982;SDS011;14442;50.196;8.096;2023-02-15T11:42:38;1.97;;;1.00;;
15982;SDS011;14442;50.196;8.096;2023-02-15T11:45:07;3.63;;;1.10;;
15982;SDS011;14442;50.196;8.096;2023-02-15T11:47:48;3.43;;;1.20;;
15982;SDS011;14442;50.196;8.096;2023-02-15T11:50:17;4.10;;;1.30;;
15982;SDS011;14442;50.196;8.096;2023-02-15T11:52:47;1.53;;;1.33;;
15982;SDS011;14442;50.196;8.096;2023-02-15T11:55:18;2.30;;;1.00;;
15982;SDS011;14442;50.196;8.096;2023-02-15T11:57:47;2.07;;;1.10;;
15982;SDS011;14442;50.196;8.096;2023-02-15T12:00:23;3.13;;;1.30;;
15982;SDS011;14442;50.196;8.096;2023-02-15T12:03:02;2.23;;;0.90;;
15982;SDS011;14442;50.196;8.096;2023-02-15T12:05:35;1.77;;;1.20;;
15982;SDS011;14442;50.196;8.096;2023-02-15T12:08:08;3.00;;;1.40;;
15982;SDS011;14442;50.196;8.096;2023-02-15T12:10:40;1.30;;;1.07;;
15982;SDS011;14442;50.196;8.096;2023-02-15T12:13:17;4.90;;;0.90;;
15982;SDS011;14442;50.196;8.096;2023-02-15T12:15:45;1.37;;;1.00;;
15982;SDS011;14442;50.196;8.096;2023-02-15T12:18:20;1.77;;;1.10;;
15982;SDS011;14442;50.196;8.096;2023-02-15T12:20:58;2.60;;;1.20;;
15982;SDS011;14442;50.196;8.096;2023-02-15T12:23:27;3.93;;;1.10;;
15982;SDS011;14442;50.196;8.096;2023-02-15T12:25:55;4.93;;;1.37;;
15982;SDS011;14442;50.196;8.096;2023-02-15T12:28:25;5.33;;;1.93;;
15982;SDS011;14442;50.196;8.096;2023-02-15T12:30:55;1.40;;;1.13;;
15982;SDS011;14442;50.196;8.096;2023-02-15T12:33:27;3.53;;;1.40;;
15982;SDS011;14442;50.196;8.096;2023-02-15T12:35:56;6.10;;;1.40;;
15982;SDS011;14442;50.196;8.096;2023-02-15T12:38:25;1.53;;;1.20;;
15982;SDS011;14442;50.196;8.096;2023-02-15T12:40:57;6.53;;;2.03;;
15982;SDS011;14442;50.196;8.096;2023-02-15T12:43:25;6.00;;;1.60;;
15982;SDS011;14442;50.196;8.096;2023-02-15T12:45:53;2.80;;;1.50;;
15982;SDS011;14442;50.196;8.096;2023-02-15T12:48:22;5.70;;;1.77;;
15982;SDS011;14442;50.196;8.096;2023-02-15T12:50:50;6.47;;;1.93;;
15982;SDS011;14442;50.196;8.096;2023-02-15T12:53:22;5.67;;;1.87;;
15982;SDS011;14442;50.196;8.096;2023-02-15T12:55:56;6.67;;;2.00;;
15982;SDS011;14442;50.196;8.096;2023-02-15T12:58:25;9.03;;;2.03;;
15982;SDS011;14442;50.196;8.096;2023-02-15T13:01:02;3.43;;;1.77;;
15982;SDS011;14442;50.196;8.096;2023-02-15T13:03:37;10.27;;;2.77;;
15982;SDS011;14442;50.196;8.096;2023-02-15T13:06:16;5.17;;;1.50;;
15982;SDS011;14442;50.196;8.096;2023-02-15T13:08:45;4.40;;;1.70;;
15982;SDS011;14442;50.196;8.096;2023-02-15T13:11:19;10.10;;;2.40;;
15982;SDS011;14442;50.196;8.096;2023-02-15T13:13:50;7.17;;;2.07;;
15982;SDS011;14442;50.196;8.096;2023-02-15T13:16:19;6.37;;;2.83;;
15982;SDS011;14442;50.196;8.096;2023-02-15T13:18:55;6.53;;;2.50;;
15982;SDS011;14442;50.196;8.096;2023-02-15T13:21:27;9.33;;;2.70;;
15982;SDS011;14442;50.196;8.096;2023-02-15T13:24:00;5.83;;;2.37;;
15982;SDS011;14442;50.196;8.096;2023-02-15T13:26:31;2.60;;;2.40;;
15982;SDS011;14442;50.196;8.096;2023-02-15T13:29:00;3.17;;;2.70;;
15982;SDS011;14442;50.196;8.096;2023-02-15T13:31:33;4.97;;;3.17;;
15982;SDS011;14442;50.196;8.096;2023-02-15T13:34:02;5.60;;;2.87;;
15982;SDS011;14442;50.196;8.096;2023-02-15T13:36:40;3.73;;;3.10;;
15982;SDS011;14442;50.196;8.096;2023-02-15T13:39:15;6.43;;;3.27;;
15982;SDS011;14442;50.196;8.096;2023-02-15T13:41:52;4.17;;;3.67;;
15982;SDS011;14442;50.196;8.096;2023-02-15T13:44:27;4.43;;;3.87;;
15982;SDS011;14442;50.196;8.096;2023-02-15T13:47:07;3.60;;;3.30;;
15982;SDS011;14442;50.196;8.096;2023-02-15T13:49:47;4.13;;;3.73;;
15982;SDS011;14442;50.196;8.096;2023-02-15T13:52:31;7.67;;;3.60;;
15982;SDS011;14442;50.196;8.096;2023-02-15T13:55:23;3.87;;;3.40;;
15982;SDS011;14442;50.196;8.096;2023-02-15T13:58:02;4.77;;;3.47;;
15982;SDS011;14442;50.196;8.096;2023-02-15T14:00:41;3.30;;;3.10;;
15982;SDS011;14442;50.196;8.096;2023-02-15T14:03:39;6.60;;;3.73;;
15982;SDS011;14442;50.196;8.096;2023-02-15T14:06:25;5.03;;;3.33;;
15982;SDS011;14442;50.196;8.096;2023-02-15T14:09:09;5.67;;;3.70;;
15982;SDS011;14442;50.196;8.096;2023-02-15T14:11:48;5.07;;;3.77;;
15982;SDS011;14442;50.196;8.096;2023-02-15T14:14:25;3.43;;;3.20;;
15982;SDS011;14442;50.196;8.096;2023-02-15T14:17:07;3.80;;;3.40;;
15982;SDS011;14442;50.196;8.096;2023-02-15T14:19:44;3.43;;;3.23;;
15982;SDS011;14442;50.196;8.096;2023-02-15T14:22:17;5.03;;;4.10;;
15982;SDS011;14442;50.196;8.096;2023-02-15T14:24:52;4.70;;;4.30;;
15982;SDS011;14442;50.196;8.096;2023-02-15T14:27:26;5.30;;;3.73;;
15982;SDS011;14442;50.196;8.096;2023-02-15T14:30:13;3.83;;;3.43;;
15982;SDS011;14442;50.196;8.096;2023-02-15T14:32:42;3.40;;;3.10;;
15982;SDS011;14442;50.196;8.096;2023-02-15T14:35:13;6.43;;;3.20;;
15982;SDS011;14442;50.196;8.096;2023-02-15T14:37:42;5.10;;;2.67;;
15982;SDS011;14442;50.196;8.096;2023-02-15T14:40:18;6.03;;;2.60;;
15982;SDS011;14442;50.196;8.096;2023-02-15T14:43:11;4.27;;;2.90;;
15982;SDS011;14442;50.196;8.096;2023-02-15T14:45:48;3.87;;;2.50;;
15982;SDS011;14442;50.196;8.096;2023-02-15T14:48:17;8.23;;;2.60;;
15982;SDS011;14442;50.196;8.096;2023-02-15T14:50:50;3.57;;;2.23;;
15982;SDS011;14442;50.196;8.096;2023-02-15T14:53:22;3.37;;;2.13;;
15982;SDS011;14442;50.196;8.096;2023-02-15T14:59:12;2.20;;;2.00;;
15982;SDS011;14442;50.196;8.096;2023-02-15T15:01:57;3.20;;;2.00;;
15982;SDS011;14442;50.196;8.096;2023-02-15T15:04:30;4.30;;;3.27;;
15982;SDS011;14442;50.196;8.096;2023-02-15T15:07:00;4.90;;;3.03;;
15982;SDS011;14442;50.196;8.096;2023-02-15T15:09:33;3.83;;;3.30;;
15982;SDS011;14442;50.196;8.096;2023-02-15T15:12:35;4.33;;;3.30;;
15982;SDS011;14442;50.196;8.096;2023-02-15T15:15:04;2.53;;;2.33;;
15982;SDS011;14442;50.196;8.096;2023-02-15T15:20:37;3.20;;;2.90;;
15982;SDS011;14442;50.196;8.096;2023-02-15T15:26:24;3.40;;;2.27;;
15982;SDS011;14442;50.196;8.096;2023-02-15T15:29:03;2.90;;;2.20;;
15982;SDS011;14442;50.196;8.096;2023-02-15T15:31:38;3.57;;;2.10;;
15982;SDS011;14442;50.196;8.096;2023-02-15T15:34:19;2.83;;;2.00;;